sensor_id;sensor_type;location;lat;lon;timestamp;pressure;altitude;pressure_sealevel;temperature;humidity
74270;BME280;62754;48.252;11.654;2023-02-02T00:00:42;96550.81;;;3.75;68.10
74270;BME280;62754;48.252;11.654;2023-02-02T00:03:08;96551.06;;;3.70;68.52
74270;BME280;62754;48.252;11.654;2023-02-02T00:05:34;96556.84;;;3.74;68.62
74270;BME280;62754;48.252;11.654;2023-02-02T00:07:59;96567.72;;;3.77;68.40
74270;BME280;62754;48.252;11.654;2023-02-02T00:10:25;96547.34;;;3.77;69.23
74270;BME280;62754;48.252;11.654;2023-02-02T00:12:51;96556.41;;;3.83;68.36
74270;BME280;62754;48.252;11.654;2023-02-02T00:15:16;96539.94;;;3.71;69.36
74270;BME280;62754;48.252;11.654;2023-02-02T00:17:42;96546.16;;;3.66;70.42
74270;BME280;62754;48.252;11.654;2023-02-02T00:20:08;96528.13;;;3.70;69.45
74270;BME280;62754;48.252;11.654;2023-02-02T00:22:34;96534.13;;;3.69;69.61
74270;BME280;62754;48.252;11.654;2023-02-02T00:25:00;96540.72;;;3.73;68.70
74270;BME280;62754;48.252;11.654;2023-02-02T00:27:26;96528.66;;;3.77;69.04
74270;BME280;62754;48.252;11.654;2023-02-02T00:29:51;96523.94;;;3.69;70.10
74270;BME280;62754;48.252;11.654;2023-02-02T00:32:18;96523.94;;;3.69;69.89
74270;BME280;62754;48.252;11.654;2023-02-02T00:34:44;96523.25;;;3.66;69.69
74270;BME280;62754;48.252;11.654;2023-02-02T00:37:10;96525.09;;;3.62;70.17
74270;BME280;62754;48.252;11.654;2023-02-02T00:39:35;96520.78;;;3.46;71.29
74270;BME280;62754;48.252;11.654;2023-02-02T00:42:01;96515.00;;;3.42;71.52
74270;BME280;62754;48.252;11.654;2023-02-02T00:44:27;96517.47;;;3.44;72.24
74270;BME280;62754;48.252;11.654;2023-02-02T00:46:52;96511.91;;;3.35;72.53
74270;BME280;62754;48.252;11.654;2023-02-02T00:49:18;96506.03;;;3.33;73.40
74270;BME280;62754;48.252;11.654;2023-02-02T00:51:44;96516.56;;;3.26;73.58
74270;BME280;62754;48.252;11.654;2023-02-02T00:54:10;96518.22;;;3.27;73.56
74270;BME280;62754;48.252;11.654;2023-02-02T00:56:35;96503.19;;;3.21;74.52
74270;BME280;62754;48.252;11.654;2023-02-02T00:59:01;96519.31;;;3.21;74.49
74270;BME280;62754;48.252;11.654;2023-02-02T01:01:27;96492.66;;;3.28;73.89
74270;BME280;62754;48.252;11.654;2023-02-02T01:03:53;96517.19;;;3.31;74.03
74270;BME280;62754;48.252;11.654;2023-02-02T01:06:18;96510.44;;;3.30;73.77
74270;BME280;62754;48.252;11.654;2023-02-02T01:08:44;96507.91;;;3.30;73.72
74270;BME280;62754;48.252;11.654;2023-02-02T01:11:10;96488.56;;;3.26;73.66
74270;BME280;62754;48.252;11.654;2023-02-02T01:13:35;96515.47;;;3.31;73.24
74270;BME280;62754;48.252;11.654;2023-02-02T01:16:03;96518.03;;;3.31;73.64
74270;BME280;62754;48.252;11.654;2023-02-02T01:18:29;96510.38;;;3.31;73.10
74270;BME280;62754;48.252;11.654;2023-02-02T01:21:03;96510.72;;;3.43;72.91
74270;BME280;62754;48.252;11.654;2023-02-02T01:23:30;96499.41;;;3.48;73.23
74270;BME280;62754;48.252;11.654;2023-02-02T01:25:57;96496.53;;;3.37;73.22
74270;BME280;62754;48.252;11.654;2023-02-02T01:28:24;96511.31;;;3.29;73.03
74270;BME280;62754;48.252;11.654;2023-02-02T01:30:50;96502.50;;;3.36;73.39
74270;BME280;62754;48.252;11.654;2023-02-02T01:33:17;96502.25;;;3.23;73.74
74270;BME280;62754;48.252;11.654;2023-02-02T01:35:47;96496.38;;;3.40;73.71
74270;BME280;62754;48.252;11.654;2023-02-02T01:38:13;96500.59;;;3.41;73.24
74270;BME280;62754;48.252;11.654;2023-02-02T01:40:56;96492.41;;;3.34;72.67
74270;BME280;62754;48.252;11.654;2023-02-02T01:43:22;96502.50;;;3.36;72.07
74270;BME280;62754;48.252;11.654;2023-02-02T01:45:50;96481.25;;;3.37;72.44
74270;BME280;62754;48.252;11.654;2023-02-02T01:48:28;96482.28;;;3.52;71.98
74270;BME280;62754;48.252;11.654;2023-02-02T01:50:57;96477.88;;;3.55;71.36
74270;BME280;62754;48.252;11.654;2023-02-02T01:53:24;96488.88;;;3.56;71.44
74270;BME280;62754;48.252;11.654;2023-02-02T01:55:50;96488.59;;;3.62;71.08
74270;BME280;62754;48.252;11.654;2023-02-02T01:58:22;96481.19;;;3.57;71.22
74270;BME280;62754;48.252;11.654;2023-02-02T02:00:49;96485.97;;;3.63;70.31
74270;BME280;62754;48.252;11.654;2023-02-02T02:03:17;96467.53;;;3.58;70.85
74270;BME280;62754;48.252;11.654;2023-02-02T02:05:54;96481.03;;;3.60;70.53
74270;BME280;62754;48.252;11.654;2023-02-02T02:08:23;96512.22;;;3.65;70.57
74270;BME280;62754;48.252;11.654;2023-02-02T02:10:50;96500.66;;;3.58;70.91
74270;BME280;62754;48.252;11.654;2023-02-02T02:13:18;96486.13;;;3.60;70.65
74270;BME280;62754;48.252;11.654;2023-02-02T02:15:58;96485.09;;;3.64;71.41
74270;BME280;62754;48.252;11.654;2023-02-02T02:18:57;96508.31;;;3.58;70.99
74270;BME280;62754;48.252;11.654;2023-02-02T02:21:39;96491.22;;;3.60;71.15
74270;BME280;62754;48.252;11.654;2023-02-02T02:33:11;96470.41;;;3.69;70.92
74270;BME280;62754;48.252;11.654;2023-02-02T02:38:50;96465.88;;;3.57;71.29
74270;BME280;62754;48.252;11.654;2023-02-02T02:41:21;96479.16;;;3.64;71.68
74270;BME280;62754;48.252;11.654;2023-02-02T02:43:56;96470.63;;;3.65;70.83
74270;BME280;62754;48.252;11.654;2023-02-02T02:46:23;96484.19;;;3.65;70.88
74270;BME280;62754;48.252;11.654;2023-02-02T02:48:49;96471.50;;;3.64;70.58
74270;BME280;62754;48.252;11.654;2023-02-02T02:54:06;96466.97;;;3.70;70.52
74270;BME280;62754;48.252;11.654;2023-02-02T02:56:40;96472.00;;;3.72;70.23
74270;BME280;62754;48.252;11.654;2023-02-02T02:59:18;96478.47;;;3.60;70.91
74270;BME280;62754;48.252;11.654;2023-02-02T03:02:10;96449.94;;;3.54;70.86
74270;BME280;62754;48.252;11.654;2023-02-02T03:07:34;96462.34;;;3.43;72.52
74270;BME280;62754;48.252;11.654;2023-02-02T03:10:04;96464.06;;;3.42;72.81
74270;BME280;62754;48.252;11.654;2023-02-02T03:12:32;96465.81;;;3.40;73.42
74270;BME280;62754;48.252;11.654;2023-02-02T03:14:58;96465.09;;;3.38;72.94
74270;BME280;62754;48.252;11.654;2023-02-02T03:17:26;96474.19;;;3.44;72.27
74270;BME280;62754;48.252;11.654;2023-02-02T03:19:52;96489.31;;;3.47;73.09
74270;BME280;62754;48.252;11.654;2023-02-02T03:22:17;96485.47;;;3.38;74.90
74270;BME280;62754;48.252;11.654;2023-02-02T03:24:43;96481.06;;;3.23;75.44
74270;BME280;62754;48.252;11.654;2023-02-02T03:27:09;96484.28;;;3.26;75.65
74270;BME280;62754;48.252;11.654;2023-02-02T03:29:35;96481.13;;;3.21;76.61
74270;BME280;62754;48.252;11.654;2023-02-02T03:32:01;96493.09;;;3.19;76.16
74270;BME280;62754;48.252;11.654;2023-02-02T03:34:27;96476.13;;;3.20;75.46
74270;BME280;62754;48.252;11.654;2023-02-02T03:36:53;96484.34;;;3.25;75.16
74270;BME280;62754;48.252;11.654;2023-02-02T03:39:18;96486.16;;;3.23;76.01
74270;BME280;62754;48.252;11.654;2023-02-02T03:41:44;96488.00;;;3.19;76.17
74270;BME280;62754;48.252;11.654;2023-02-02T03:44:10;96490.72;;;3.16;76.51
74270;BME280;62754;48.252;11.654;2023-02-02T03:46:35;96504.13;;;3.20;76.50
74270;BME280;62754;48.252;11.654;2023-02-02T03:49:01;96484.09;;;3.12;77.15
74270;BME280;62754;48.252;11.654;2023-02-02T03:51:27;96488.41;;;3.10;77.28
74270;BME280;62754;48.252;11.654;2023-02-02T03:53:53;96483.19;;;3.13;77.35
74270;BME280;62754;48.252;11.654;2023-02-02T03:56:18;96501.09;;;3.12;77.72
74270;BME280;62754;48.252;11.654;2023-02-02T03:58:44;96476.66;;;3.08;77.10
74270;BME280;62754;48.252;11.654;2023-02-02T04:01:11;96482.34;;;3.13;76.70
74270;BME280;62754;48.252;11.654;2023-02-02T04:03:37;96469.97;;;3.05;76.38
74270;BME280;62754;48.252;11.654;2023-02-02T04:06:03;96473.81;;;3.14;76.62
74270;BME280;62754;48.252;11.654;2023-02-02T04:08:29;96471.22;;;3.15;75.97
74270;BME280;62754;48.252;11.654;2023-02-02T04:10:55;96475.44;;;3.16;77.01
74270;BME280;62754;48.252;11.654;2023-02-02T04:13:20;96485.38;;;3.21;76.12
74270;BME280;62754;48.252;11.654;2023-02-02T04:15:46;96476.13;;;3.20;76.93
74270;BME280;62754;48.252;11.654;2023-02-02T04:18:12;96477.88;;;3.18;76.88
74270;BME280;62754;48.252;11.654;2023-02-02T04:20:37;96488.84;;;3.20;77.18
74270;BME280;62754;48.252;11.654;2023-02-02T04:23:03;96493.78;;;3.23;76.68
74270;BME280;62754;48.252;11.654;2023-02-02T04:25:29;96469.75;;;3.28;75.68
74270;BME280;62754;48.252;11.654;2023-02-02T04:27:55;96485.03;;;3.28;75.86
74270;BME280;62754;48.252;11.654;2023-02-02T04:30:20;96499.44;;;3.29;76.78
74270;BME280;62754;48.252;11.654;2023-02-02T04:32:46;96486.63;;;3.31;75.77
74270;BME280;62754;48.252;11.654;2023-02-02T04:35:12;96480.91;;;3.26;77.58
74270;BME280;62754;48.252;11.654;2023-02-02T04:37:38;96496.94;;;3.09;79.19
74270;BME280;62754;48.252;11.654;2023-02-02T04:40:04;96492.41;;;2.97;81.03
74270;BME280;62754;48.252;11.654;2023-02-02T04:42:30;96508.94;;;2.87;80.71
74270;BME280;62754;48.252;11.654;2023-02-02T04:44:56;96487.50;;;2.93;80.92
74270;BME280;62754;48.252;11.654;2023-02-02T04:47:21;96484.00;;;2.95;80.43
74270;BME280;62754;48.252;11.654;2023-02-02T04:49:47;96477.34;;;2.93;80.06
74270;BME280;62754;48.252;11.654;2023-02-02T04:52:13;96491.38;;;3.01;79.59
74270;BME280;62754;48.252;11.654;2023-02-02T04:54:38;96484.28;;;3.08;79.43
74270;BME280;62754;48.252;11.654;2023-02-02T04:57:04;96497.72;;;3.11;78.14
74270;BME280;62754;48.252;11.654;2023-02-02T04:59:30;96499.72;;;3.23;77.86
74270;BME280;62754;48.252;11.654;2023-02-02T05:01:59;96496.53;;;3.18;78.13
74270;BME280;62754;48.252;11.654;2023-02-02T05:04:25;96491.09;;;3.26;77.94
74270;BME280;62754;48.252;11.654;2023-02-02T05:06:51;96493.44;;;3.30;77.36
74270;BME280;62754;48.252;11.654;2023-02-02T05:09:17;96502.16;;;3.25;79.37
74270;BME280;62754;48.252;11.654;2023-02-02T05:11:42;96484.09;;;3.31;77.94
74270;BME280;62754;48.252;11.654;2023-02-02T05:14:09;96495.16;;;3.30;77.70
74270;BME280;62754;48.252;11.654;2023-02-02T05:16:35;96505.78;;;3.40;77.68
74270;BME280;62754;48.252;11.654;2023-02-02T05:19:01;96507.16;;;3.28;77.88
74270;BME280;62754;48.252;11.654;2023-02-02T05:21:26;96495.09;;;3.31;78.52
74270;BME280;62754;48.252;11.654;2023-02-02T05:23:52;96514.00;;;3.26;77.96
74270;BME280;62754;48.252;11.654;2023-02-02T05:26:20;96509.56;;;3.31;78.18
74270;BME280;62754;48.252;11.654;2023-02-02T05:28:46;96508.94;;;3.26;78.25
74270;BME280;62754;48.252;11.654;2023-02-02T05:31:12;96530.75;;;3.31;78.11
74270;BME280;62754;48.252;11.654;2023-02-02T05:33:38;96515.53;;;3.30;77.87
74270;BME280;62754;48.252;11.654;2023-02-02T05:36:04;96521.47;;;3.30;78.01
74270;BME280;62754;48.252;11.654;2023-02-02T05:38:30;96500.88;;;3.35;77.97
74270;BME280;62754;48.252;11.654;2023-02-02T05:40:56;96522.44;;;3.28;77.47
74270;BME280;62754;48.252;11.654;2023-02-02T05:43:25;96503.28;;;3.38;77.38
74270;BME280;62754;48.252;11.654;2023-02-02T05:45:51;96504.19;;;3.37;76.98
74270;BME280;62754;48.252;11.654;2023-02-02T05:48:17;96500.34;;;3.47;77.13
74270;BME280;62754;48.252;11.654;2023-02-02T05:50:45;96509.75;;;3.45;77.73
74270;BME280;62754;48.252;11.654;2023-02-02T05:53:12;96520.81;;;3.44;76.81
74270;BME280;62754;48.252;11.654;2023-02-02T05:55:38;96529.38;;;3.43;77.15
74270;BME280;62754;48.252;11.654;2023-02-02T05:58:04;96516.66;;;3.43;77.16
74270;BME280;62754;48.252;11.654;2023-02-02T06:00:30;96511.66;;;3.40;77.73
74270;BME280;62754;48.252;11.654;2023-02-02T06:02:55;96523.72;;;3.36;78.49
74270;BME280;62754;48.252;11.654;2023-02-02T06:05:21;96525.31;;;3.39;77.43
74270;BME280;62754;48.252;11.654;2023-02-02T06:07:47;96513.13;;;3.46;76.91
74270;BME280;62754;48.252;11.654;2023-02-02T06:10:12;96521.25;;;3.54;76.57
74270;BME280;62754;48.252;11.654;2023-02-02T06:12:38;96525.09;;;3.62;76.08
74270;BME280;62754;48.252;11.654;2023-02-02T06:15:04;96520.38;;;3.55;76.12
74270;BME280;62754;48.252;11.654;2023-02-02T06:17:30;96530.41;;;3.58;76.08
74270;BME280;62754;48.252;11.654;2023-02-02T06:19:56;96527.84;;;3.58;75.95
74270;BME280;62754;48.252;11.654;2023-02-02T06:22:22;96531.56;;;3.69;75.64
74270;BME280;62754;48.252;11.654;2023-02-02T06:24:48;96524.19;;;3.63;75.16
74270;BME280;62754;48.252;11.654;2023-02-02T06:27:13;96542.38;;;3.74;75.02
74270;BME280;62754;48.252;11.654;2023-02-02T06:29:39;96533.09;;;3.73;75.23
74270;BME280;62754;48.252;11.654;2023-02-02T06:32:05;96518.00;;;3.69;74.88
74270;BME280;62754;48.252;11.654;2023-02-02T06:34:30;96534.50;;;3.79;74.07
74270;BME280;62754;48.252;11.654;2023-02-02T06:36:56;96526.94;;;3.77;74.46
74270;BME280;62754;48.252;11.654;2023-02-02T06:39:22;96537.28;;;3.74;74.18
74270;BME280;62754;48.252;11.654;2023-02-02T06:41:48;96542.91;;;3.81;74.65
74270;BME280;62754;48.252;11.654;2023-02-02T06:44:13;96546.56;;;3.75;75.13
74270;BME280;62754;48.252;11.654;2023-02-02T06:46:40;96535.47;;;3.76;74.63
74270;BME280;62754;48.252;11.654;2023-02-02T06:49:06;96564.66;;;3.88;74.55
74270;BME280;62754;48.252;11.654;2023-02-02T06:51:31;96553.16;;;3.79;74.77
74270;BME280;62754;48.252;11.654;2023-02-02T06:53:57;96551.81;;;3.72;74.74
74270;BME280;62754;48.252;11.654;2023-02-02T06:56:23;96540.56;;;3.76;74.92
74270;BME280;62754;48.252;11.654;2023-02-02T06:58:49;96571.78;;;3.81;75.39
74270;BME280;62754;48.252;11.654;2023-02-02T07:01:14;96555.88;;;3.76;75.00
74270;BME280;62754;48.252;11.654;2023-02-02T07:03:40;96571.78;;;3.81;74.84
74270;BME280;62754;48.252;11.654;2023-02-02T07:06:17;96570.28;;;3.77;74.90
74270;BME280;62754;48.252;11.654;2023-02-02T07:08:44;96567.56;;;3.80;74.82
74270;BME280;62754;48.252;11.654;2023-02-02T07:11:10;96558.34;;;3.78;75.18
74270;BME280;62754;48.252;11.654;2023-02-02T07:13:36;96560.81;;;3.79;75.09
74270;BME280;62754;48.252;11.654;2023-02-02T07:16:03;96587.34;;;3.75;75.46
74270;BME280;62754;48.252;11.654;2023-02-02T07:18:29;96581.69;;;3.69;75.72
74270;BME280;62754;48.252;11.654;2023-02-02T07:21:01;96576.19;;;3.78;75.17
74270;BME280;62754;48.252;11.654;2023-02-02T07:23:28;96594.22;;;3.73;76.01
74270;BME280;62754;48.252;11.654;2023-02-02T07:26:02;96579.78;;;3.74;75.92
74270;BME280;62754;48.252;11.654;2023-02-02T07:28:28;96597.81;;;3.69;77.15
74270;BME280;62754;48.252;11.654;2023-02-02T07:30:54;96589.19;;;3.72;76.81
74270;BME280;62754;48.252;11.654;2023-02-02T07:33:20;96596.63;;;3.76;76.18
74270;BME280;62754;48.252;11.654;2023-02-02T07:35:45;96592.53;;;3.74;76.48
74270;BME280;62754;48.252;11.654;2023-02-02T07:38:11;96595.25;;;3.69;76.85
74270;BME280;62754;48.252;11.654;2023-02-02T07:40:37;96597.31;;;3.61;77.39
74270;BME280;62754;48.252;11.654;2023-02-02T07:43:03;96598.75;;;3.67;77.96
74270;BME280;62754;48.252;11.654;2023-02-02T07:45:28;96609.72;;;3.69;77.62
74270;BME280;62754;48.252;11.654;2023-02-02T07:47:58;96608.06;;;3.49;78.22
74270;BME280;62754;48.252;11.654;2023-02-02T07:50:25;96602.81;;;3.52;78.93
74270;BME280;62754;48.252;11.654;2023-02-02T07:52:51;96616.19;;;3.57;79.56
74270;BME280;62754;48.252;11.654;2023-02-02T07:55:18;96608.50;;;3.59;79.17
74270;BME280;62754;48.252;11.654;2023-02-02T07:57:44;96603.50;;;3.56;78.60
74270;BME280;62754;48.252;11.654;2023-02-02T08:00:10;96608.75;;;3.53;79.27
74270;BME280;62754;48.252;11.654;2023-02-02T08:02:36;96614.72;;;3.52;79.65
74270;BME280;62754;48.252;11.654;2023-02-02T08:05:01;96624.84;;;3.53;79.21
74270;BME280;62754;48.252;11.654;2023-02-02T08:07:27;96610.41;;;3.54;79.43
74270;BME280;62754;48.252;11.654;2023-02-02T08:09:53;96624.81;;;3.55;79.74
74270;BME280;62754;48.252;11.654;2023-02-02T08:12:19;96608.75;;;3.53;79.05
74270;BME280;62754;48.252;11.654;2023-02-02T08:14:44;96634.44;;;3.67;78.95
74270;BME280;62754;48.252;11.654;2023-02-02T08:17:10;96619.09;;;3.68;78.60
74270;BME280;62754;48.252;11.654;2023-02-02T08:19:36;96639.47;;;3.68;77.76
74270;BME280;62754;48.252;11.654;2023-02-02T08:22:02;96627.41;;;3.72;77.60
74270;BME280;62754;48.252;11.654;2023-02-02T08:24:27;96640.25;;;3.70;77.93
74270;BME280;62754;48.252;11.654;2023-02-02T08:26:53;96632.84;;;3.83;77.93
74270;BME280;62754;48.252;11.654;2023-02-02T08:29:19;96637.00;;;3.86;78.18
74270;BME280;62754;48.252;11.654;2023-02-02T08:31:45;96644.03;;;3.80;77.98
74270;BME280;62754;48.252;11.654;2023-02-02T08:34:11;96646.22;;;3.88;77.71
74270;BME280;62754;48.252;11.654;2023-02-02T08:36:37;96644.50;;;3.89;77.91
74270;BME280;62754;48.252;11.654;2023-02-02T08:39:06;96651.47;;;3.85;77.87
74270;BME280;62754;48.252;11.654;2023-02-02T08:41:33;96654.41;;;3.76;78.74
74270;BME280;62754;48.252;11.654;2023-02-02T08:43:58;96659.03;;;3.87;78.21
74270;BME280;62754;48.252;11.654;2023-02-02T08:46:24;96673.38;;;3.70;78.27
74270;BME280;62754;48.252;11.654;2023-02-02T08:48:50;96657.38;;;3.67;79.51
74270;BME280;62754;48.252;11.654;2023-02-02T08:51:17;96662.03;;;3.57;79.33
74270;BME280;62754;48.252;11.654;2023-02-02T08:53:44;96660.28;;;3.78;79.60
74270;BME280;62754;48.252;11.654;2023-02-02T08:56:13;96663.38;;;3.66;80.25
74270;BME280;62754;48.252;11.654;2023-02-02T08:58:43;96664.81;;;3.71;80.04
74270;BME280;62754;48.252;11.654;2023-02-02T09:01:14;96657.78;;;3.76;80.09
74270;BME280;62754;48.252;11.654;2023-02-02T09:03:40;96650.78;;;3.63;79.40
74270;BME280;62754;48.252;11.654;2023-02-02T09:06:14;96666.75;;;3.66;80.09
74270;BME280;62754;48.252;11.654;2023-02-02T09:08:40;96659.72;;;3.71;80.16
74270;BME280;62754;48.252;11.654;2023-02-02T09:11:08;96667.56;;;3.67;79.83
74270;BME280;62754;48.252;11.654;2023-02-02T09:13:36;96667.34;;;3.71;79.57
74270;BME280;62754;48.252;11.654;2023-02-02T09:16:03;96691.91;;;3.74;79.87
74270;BME280;62754;48.252;11.654;2023-02-02T09:18:30;96677.34;;;3.76;79.44
74270;BME280;62754;48.252;11.654;2023-02-02T09:20:59;96693.41;;;3.78;78.97
74270;BME280;62754;48.252;11.654;2023-02-02T09:23:28;96683.34;;;3.75;79.93
74270;BME280;62754;48.252;11.654;2023-02-02T09:25:54;96685.28;;;3.89;79.30
74270;BME280;62754;48.252;11.654;2023-02-02T09:28:20;96692.59;;;3.96;78.71
74270;BME280;62754;48.252;11.654;2023-02-02T09:30:46;96679.50;;;3.85;78.92
74270;BME280;62754;48.252;11.654;2023-02-02T09:33:11;96682.56;;;3.93;79.23
74270;BME280;62754;48.252;11.654;2023-02-02T09:35:37;96679.56;;;4.02;78.76
74270;BME280;62754;48.252;11.654;2023-02-02T09:38:03;96674.47;;;3.83;79.40
74270;BME280;62754;48.252;11.654;2023-02-02T09:40:30;96704.22;;;3.83;79.60
74270;BME280;62754;48.252;11.654;2023-02-02T09:43:39;96679.84;;;3.96;78.58
74270;BME280;62754;48.252;11.654;2023-02-02T09:46:20;96685.94;;;3.94;78.43
74270;BME280;62754;48.252;11.654;2023-02-02T09:48:57;96677.25;;;4.16;78.40
74270;BME280;62754;48.252;11.654;2023-02-02T09:51:27;96676.91;;;4.24;77.97
74270;BME280;62754;48.252;11.654;2023-02-02T09:54:05;96691.03;;;4.12;78.04
74270;BME280;62754;48.252;11.654;2023-02-02T09:56:40;96688.34;;;4.15;78.19
74270;BME280;62754;48.252;11.654;2023-02-02T09:59:14;96687.31;;;4.19;78.06
74270;BME280;62754;48.252;11.654;2023-02-02T10:01:43;96678.88;;;4.17;78.77
74270;BME280;62754;48.252;11.654;2023-02-02T10:04:16;96689.75;;;4.21;78.19
74270;BME280;62754;48.252;11.654;2023-02-02T10:06:49;96675.41;;;4.37;77.17
74270;BME280;62754;48.252;11.654;2023-02-02T10:09:34;96677.84;;;4.40;77.71
74270;BME280;62754;48.252;11.654;2023-02-02T10:12:20;96681.00;;;4.45;77.74
74270;BME280;62754;48.252;11.654;2023-02-02T10:15:18;96676.09;;;4.59;76.83
74270;BME280;62754;48.252;11.654;2023-02-02T10:17:55;96676.47;;;4.52;76.64
74270;BME280;62754;48.252;11.654;2023-02-02T10:20:56;96678.84;;;4.55;76.12
74270;BME280;62754;48.252;11.654;2023-02-02T10:26:10;96687.47;;;4.52;76.87
74270;BME280;62754;48.252;11.654;2023-02-02T10:31:18;96683.97;;;4.55;76.66
74270;BME280;62754;48.252;11.654;2023-02-02T10:34:03;96679.16;;;4.66;76.80
74270;BME280;62754;48.252;11.654;2023-02-02T10:37:00;96682.72;;;4.63;76.24
74270;BME280;62754;48.252;11.654;2023-02-02T10:39:38;96679.22;;;4.64;75.77
74270;BME280;62754;48.252;11.654;2023-02-02T10:42:29;96678.56;;;4.61;76.39
74270;BME280;62754;48.252;11.654;2023-02-02T10:45:01;96662.19;;;4.48;76.06
74270;BME280;62754;48.252;11.654;2023-02-02T10:47:31;96697.34;;;4.41;76.61
74270;BME280;62754;48.252;11.654;2023-02-02T10:50:16;96678.44;;;4.45;76.34
74270;BME280;62754;48.252;11.654;2023-02-02T10:52:47;96670.88;;;4.44;76.94
74270;BME280;62754;48.252;11.654;2023-02-02T10:55:26;96686.19;;;4.44;76.54
74270;BME280;62754;48.252;11.654;2023-02-02T11:00:46;96690.41;;;4.62;77.60
74270;BME280;62754;48.252;11.654;2023-02-02T11:03:15;96675.25;;;4.59;77.03
74270;BME280;62754;48.252;11.654;2023-02-02T11:05:41;96672.81;;;4.92;77.34
74270;BME280;62754;48.252;11.654;2023-02-02T11:08:19;96661.69;;;4.75;76.92
74270;BME280;62754;48.252;11.654;2023-02-02T11:10:49;96664.53;;;4.87;77.44
74270;BME280;62754;48.252;11.654;2023-02-02T11:13:44;96658.91;;;4.80;76.49
74270;BME280;62754;48.252;11.654;2023-02-02T11:18:42;96665.69;;;4.81;77.38
74270;BME280;62754;48.252;11.654;2023-02-02T11:21:25;96682.94;;;4.76;77.07
74270;BME280;62754;48.252;11.654;2023-02-02T11:24:03;96677.16;;;4.72;77.75
74270;BME280;62754;48.252;11.654;2023-02-02T11:29:17;96700.78;;;4.59;77.96
74270;BME280;62754;48.252;11.654;2023-02-02T11:31:45;96674.69;;;4.71;78.77
74270;BME280;62754;48.252;11.654;2023-02-02T11:39:42;96671.69;;;4.44;79.84
74270;BME280;62754;48.252;11.654;2023-02-02T11:42:17;96682.50;;;4.49;80.09
74270;BME280;62754;48.252;11.654;2023-02-02T11:44:56;96664.13;;;4.43;80.95
74270;BME280;62754;48.252;11.654;2023-02-02T11:47:27;96679.13;;;4.49;80.99
74270;BME280;62754;48.252;11.654;2023-02-02T11:49:54;96686.31;;;4.59;79.91
74270;BME280;62754;48.252;11.654;2023-02-02T11:52:21;96678.28;;;4.48;81.58
74270;BME280;62754;48.252;11.654;2023-02-02T11:54:50;96688.28;;;4.53;79.94
74270;BME280;62754;48.252;11.654;2023-02-02T11:57:20;96673.50;;;4.42;82.16
74270;BME280;62754;48.252;11.654;2023-02-02T11:59:48;96684.03;;;4.35;81.89
74270;BME280;62754;48.252;11.654;2023-02-02T12:02:26;96694.31;;;4.14;81.99
74270;BME280;62754;48.252;11.654;2023-02-02T12:07:38;96694.25;;;4.16;82.66
74270;BME280;62754;48.252;11.654;2023-02-02T12:10:15;96696.03;;;4.14;82.72
74270;BME280;62754;48.252;11.654;2023-02-02T12:15:57;96694.53;;;4.10;82.04
74270;BME280;62754;48.252;11.654;2023-02-02T12:26:49;96682.81;;;4.06;83.07
74270;BME280;62754;48.252;11.654;2023-02-02T12:37:38;96692.59;;;3.96;83.96
74270;BME280;62754;48.252;11.654;2023-02-02T12:56:53;96695.75;;;3.82;85.60
74270;BME280;62754;48.252;11.654;2023-02-02T13:02:06;96695.63;;;3.86;84.82
74270;BME280;62754;48.252;11.654;2023-02-02T13:05:09;96691.56;;;3.81;84.91
74270;BME280;62754;48.252;11.654;2023-02-02T13:07:51;96690.94;;;3.76;85.09
74270;BME280;62754;48.252;11.654;2023-02-02T13:10:44;96692.16;;;3.68;85.05
74270;BME280;62754;48.252;11.654;2023-02-02T13:13:24;96708.03;;;3.74;85.25
74270;BME280;62754;48.252;11.654;2023-02-02T13:15:54;96699.31;;;3.78;84.40
74270;BME280;62754;48.252;11.654;2023-02-02T13:18:26;96707.53;;;3.85;85.65
74270;BME280;62754;48.252;11.654;2023-02-02T13:21:14;96720.97;;;3.89;85.74
74270;BME280;62754;48.252;11.654;2023-02-02T13:23:46;96743.91;;;3.89;85.38
74270;BME280;62754;48.252;11.654;2023-02-02T13:26:18;96723.22;;;3.76;85.47
74270;BME280;62754;48.252;11.654;2023-02-02T13:29:07;96734.53;;;3.70;85.64
74270;BME280;62754;48.252;11.654;2023-02-02T13:31:56;96735.31;;;3.71;85.93
74270;BME280;62754;48.252;11.654;2023-02-02T13:34:39;96731.56;;;3.79;86.59
74270;BME280;62754;48.252;11.654;2023-02-02T13:37:17;96728.19;;;3.79;86.14
74270;BME280;62754;48.252;11.654;2023-02-02T13:39:51;96751.94;;;3.79;85.88
74270;BME280;62754;48.252;11.654;2023-02-02T13:42:31;96742.63;;;3.78;86.47
74270;BME280;62754;48.252;11.654;2023-02-02T13:45:08;96735.00;;;3.78;86.28
74270;BME280;62754;48.252;11.654;2023-02-02T13:47:51;96738.47;;;3.77;86.54
74270;BME280;62754;48.252;11.654;2023-02-02T13:50:19;96738.81;;;3.89;85.58
74270;BME280;62754;48.252;11.654;2023-02-02T13:53:05;96751.59;;;3.68;86.07
74270;BME280;62754;48.252;11.654;2023-02-02T13:55:45;96747.03;;;3.75;87.01
74270;BME280;62754;48.252;11.654;2023-02-02T14:01:06;96745.31;;;3.75;86.52
74270;BME280;62754;48.252;11.654;2023-02-02T14:03:36;96765.28;;;3.66;86.37
74270;BME280;62754;48.252;11.654;2023-02-02T14:06:15;96763.16;;;3.75;85.67
74270;BME280;62754;48.252;11.654;2023-02-02T14:11:40;96757.31;;;3.73;86.14
74270;BME280;62754;48.252;11.654;2023-02-02T14:14:09;96759.78;;;3.75;86.18
74270;BME280;62754;48.252;11.654;2023-02-02T14:19:05;96765.47;;;3.81;86.40
74270;BME280;62754;48.252;11.654;2023-02-02T14:23:58;96776.91;;;3.92;85.50
74270;BME280;62754;48.252;11.654;2023-02-02T14:31:54;96773.69;;;3.68;86.71
74270;BME280;62754;48.252;11.654;2023-02-02T14:34:40;96774.69;;;3.64;87.13
74270;BME280;62754;48.252;11.654;2023-02-02T14:39:41;96786.28;;;3.71;86.71
74270;BME280;62754;48.252;11.654;2023-02-02T14:42:29;96788.91;;;3.69;86.58
74270;BME280;62754;48.252;11.654;2023-02-02T14:47:48;96789.84;;;3.67;86.87
74270;BME280;62754;48.252;11.654;2023-02-02T14:50:17;96784.72;;;3.68;86.92
74270;BME280;62754;48.252;11.654;2023-02-02T14:52:44;96782.16;;;3.68;87.23